createdAt,value
2022-11-30T00:00:58.509Z,96.64
2022-11-30T00:03:26.132Z,96.87
2022-11-30T00:05:53.695Z,94.99
2022-11-30T00:08:21.282Z,95.80
2022-11-30T00:10:48.926Z,94.13
2022-11-30T00:13:16.282Z,92.50
2022-11-30T00:15:43.680Z,93.21
2022-11-30T00:18:11.189Z,93.25
2022-11-30T00:20:38.685Z,92.93
2022-11-30T00:23:06.237Z,92.21
2022-11-30T00:25:33.561Z,92.66
2022-11-30T00:28:01.799Z,92.33
2022-11-30T00:30:29.471Z,91.31
2022-11-30T00:32:57.858Z,92.57
2022-11-30T00:35:25.369Z,92.50
2022-11-30T00:37:52.777Z,92.65
2022-11-30T00:40:20.360Z,93.18
2022-11-30T00:42:47.803Z,92.81
2022-11-30T00:45:15.384Z,91.92
2022-11-30T00:47:43.509Z,92.36
2022-11-30T00:50:11.862Z,91.18
2022-11-30T00:52:42.376Z,91.52
2022-11-30T00:55:10.341Z,90.57
2022-11-30T00:57:37.655Z,90.01
2022-11-30T01:00:05.235Z,91.33
2022-11-30T01:02:32.734Z,91.32
2022-11-30T01:05:00.370Z,91.20
2022-11-30T01:07:27.912Z,91.40
2022-11-30T01:09:55.870Z,91.02
2022-11-30T01:12:24.347Z,90.51
2022-11-30T01:14:51.620Z,91.28
2022-11-30T01:17:19.363Z,91.96
2022-11-30T01:19:46.767Z,91.45
2022-11-30T01:22:14.069Z,90.53
2022-11-30T01:24:41.351Z,89.57
2022-11-30T01:27:08.842Z,89.28
2022-11-30T01:29:36.190Z,88.36
2022-11-30T01:32:03.830Z,89.58
2022-11-30T01:34:31.162Z,89.91
2022-11-30T01:36:58.524Z,89.08
2022-11-30T01:39:25.980Z,88.34
2022-11-30T01:41:53.904Z,89.07
2022-11-30T01:44:27.147Z,87.75
2022-11-30T01:47:04.171Z,86.92
2022-11-30T01:49:31.516Z,85.51
2022-11-30T01:52:00.875Z,85.60
2022-11-30T01:54:39.049Z,86.00
2022-11-30T01:57:12.778Z,85.90
2022-11-30T01:59:40.107Z,84.61
2022-11-30T02:02:07.454Z,85.53
2022-11-30T02:04:35.558Z,86.01
2022-11-30T02:07:03.436Z,86.14
2022-11-30T02:09:31.623Z,86.93
2022-11-30T02:11:59.181Z,85.95
2022-11-30T02:14:33.189Z,86.39
2022-11-30T02:17:30.316Z,86.17
2022-11-30T02:20:30.292Z,84.95
2022-11-30T02:23:04.077Z,84.71
2022-11-30T02:25:31.520Z,83.55
2022-11-30T02:27:58.931Z,83.72
2022-11-30T02:30:26.815Z,84.76
2022-11-30T02:32:55.449Z,84.97
2022-11-30T02:35:30.669Z,85.28
2022-11-30T02:37:59.445Z,84.68
2022-11-30T02:40:26.871Z,84.16
2022-11-30T02:42:54.511Z,86.27
2022-11-30T02:45:24.277Z,86.19
2022-11-30T02:48:11.887Z,87.31
2022-11-30T02:50:44.779Z,87.33
2022-11-30T02:53:12.212Z,88.09
2022-11-30T02:55:39.588Z,88.06
2022-11-30T02:58:06.985Z,87.49
2022-11-30T03:00:34.478Z,86.71
2022-11-30T03:03:02.345Z,87.02
2022-11-30T03:05:29.833Z,88.86
2022-11-30T03:07:57.684Z,87.98
2022-11-30T03:10:25.574Z,88.26
2022-11-30T03:12:52.992Z,88.08
2022-11-30T03:15:20.352Z,87.52
2022-11-30T03:17:47.933Z,86.63
2022-11-30T03:20:15.316Z,86.19
2022-11-30T03:22:42.708Z,86.52
2022-11-30T03:25:10.366Z,86.40
2022-11-30T03:27:37.715Z,86.19
2022-11-30T03:30:05.899Z,86.94
2022-11-30T03:32:34.474Z,87.27
2022-11-30T03:35:01.846Z,87.12
2022-11-30T03:37:29.361Z,86.73
2022-11-30T03:39:58.519Z,86.59
2022-11-30T03:42:27.338Z,86.31
2022-11-30T03:44:54.747Z,86.77
2022-11-30T03:47:22.228Z,85.71
2022-11-30T03:49:49.911Z,85.15
2022-11-30T03:52:17.339Z,85.78
2022-11-30T03:54:45.064Z,86.39
2022-11-30T03:57:12.942Z,85.02
2022-11-30T03:59:40.474Z,83.93
2022-11-30T04:02:08.100Z,84.37
2022-11-30T04:04:35.840Z,84.11
2022-11-30T04:07:03.214Z,83.88
2022-11-30T04:09:31.281Z,83.91
2022-11-30T04:11:59.239Z,84.58
2022-11-30T04:14:26.696Z,84.09
2022-11-30T04:16:54.036Z,84.35
2022-11-30T04:19:21.346Z,84.35
2022-11-30T04:21:48.808Z,85.40
2022-11-30T04:24:16.135Z,85.60
2022-11-30T04:26:43.885Z,84.73
2022-11-30T04:29:11.954Z,86.17
2022-11-30T04:31:39.535Z,85.70
2022-11-30T04:34:07.166Z,86.70
2022-11-30T04:36:34.874Z,87.99
2022-11-30T04:39:02.420Z,89.03
2022-11-30T04:41:30.553Z,87.35
2022-11-30T04:43:57.822Z,87.16
2022-11-30T04:46:25.381Z,87.20
2022-11-30T04:48:52.862Z,87.47
2022-11-30T04:51:20.316Z,87.65
2022-11-30T04:53:47.642Z,87.20
2022-11-30T04:56:15.025Z,86.77
2022-11-30T04:58:42.363Z,86.80
2022-11-30T05:01:09.938Z,86.18
2022-11-30T05:03:37.577Z,86.32
2022-11-30T05:06:04.994Z,85.25
2022-11-30T05:08:32.684Z,85.73
2022-11-30T05:11:02.028Z,86.04
2022-11-30T05:13:29.973Z,85.34
2022-11-30T05:15:57.444Z,85.23
2022-11-30T05:18:24.888Z,84.78
2022-11-30T05:20:52.924Z,83.78
2022-11-30T05:23:20.628Z,85.21
2022-11-30T05:25:48.201Z,85.01
2022-11-30T05:28:15.703Z,86.79
2022-11-30T05:30:43.211Z,85.51
2022-11-30T05:33:10.906Z,84.43
2022-11-30T05:35:38.204Z,84.81
2022-11-30T05:38:05.625Z,83.89
2022-11-30T05:40:33.782Z,84.85
2022-11-30T05:43:01.920Z,84.10
2022-11-30T05:45:29.468Z,83.68
2022-11-30T05:47:56.912Z,83.52
2022-11-30T05:50:24.281Z,83.19
2022-11-30T05:52:58.321Z,82.91
2022-11-30T05:55:25.738Z,81.89
2022-11-30T05:57:53.335Z,82.47
2022-11-30T06:00:21.097Z,82.26
2022-11-30T06:02:48.760Z,80.61
2022-11-30T06:05:16.271Z,81.18
2022-11-30T06:07:43.816Z,80.01
2022-11-30T06:10:11.605Z,80.63
2022-11-30T06:12:39.037Z,79.41
2022-11-30T06:15:06.787Z,80.13
2022-11-30T06:17:34.531Z,79.22
2022-11-30T06:20:01.955Z,77.67
2022-11-30T06:22:29.750Z,77.70
2022-11-30T06:24:57.232Z,76.81
2022-11-30T06:27:24.662Z,75.98
2022-11-30T06:29:53.435Z,75.92
2022-11-30T06:32:20.896Z,76.62
2022-11-30T06:34:48.443Z,76.23
2022-11-30T06:37:16.024Z,75.70
2022-11-30T06:40:05.420Z,75.52
2022-11-30T06:42:31.418Z,75.02
2022-11-30T06:44:58.985Z,74.38
2022-11-30T06:47:28.218Z,73.41
2022-11-30T06:49:55.588Z,73.12
2022-11-30T06:52:23.059Z,72.87
2022-11-30T16:31:36.676Z,61.96
2022-11-30T16:34:04.264Z,62.42
2022-11-30T16:36:33.616Z,61.93
2022-11-30T16:39:01.013Z,62.04
2022-11-30T16:41:28.930Z,62.30
2022-11-30T16:43:56.456Z,62.83
2022-11-30T16:46:24.565Z,63.15
2022-11-30T16:48:51.959Z,62.85
2022-11-30T16:51:27.550Z,62.94
2022-11-30T16:53:54.982Z,62.55
2022-11-30T16:56:22.474Z,62.78
2022-11-30T16:58:50.039Z,63.46
2022-11-30T17:01:17.802Z,63.02
2022-11-30T17:03:45.926Z,63.55
2022-11-30T17:06:14.419Z,62.79
2022-11-30T17:08:42.406Z,62.69
2022-11-30T17:11:14.188Z,63.16
2022-11-30T17:13:42.534Z,62.59
2022-11-30T17:16:10.331Z,62.54
2022-11-30T17:18:37.655Z,62.36
2022-11-30T17:21:05.142Z,62.44
2022-11-30T17:23:32.581Z,62.55
2022-11-30T17:26:00.033Z,62.15
2022-11-30T17:28:27.365Z,62.49
2022-11-30T17:30:54.708Z,62.05
2022-11-30T17:33:22.275Z,61.94
2022-11-30T17:35:49.754Z,61.42
2022-11-30T17:38:17.741Z,61.47
2022-11-30T17:40:45.509Z,61.64
2022-11-30T17:43:12.790Z,61.72
2022-11-30T17:45:40.494Z,62.02
2022-11-30T17:48:07.970Z,62.07
2022-11-30T17:50:37.809Z,61.98
2022-11-30T17:53:06.036Z,62.29
2022-11-30T17:55:33.725Z,62.69
2022-11-30T17:58:01.355Z,62.30
2022-11-30T18:00:29.046Z,62.33
2022-11-30T18:02:56.597Z,62.50
2022-11-30T18:05:23.971Z,62.21
2022-11-30T18:07:51.485Z,62.98
2022-11-30T18:10:19.038Z,62.94
2022-11-30T18:12:46.731Z,62.69
2022-11-30T18:15:14.834Z,63.15
2022-11-30T18:17:42.231Z,63.42
2022-11-30T18:20:11.010Z,63.38
2022-11-30T18:22:38.617Z,62.82
2022-11-30T18:25:06.205Z,62.38
2022-11-30T18:27:33.735Z,60.11
2022-11-30T18:30:02.795Z,58.46
2022-11-30T18:32:34.076Z,58.35
2022-11-30T18:35:02.297Z,59.62
2022-11-30T18:37:29.943Z,60.71
2022-11-30T18:39:57.477Z,61.81
2022-11-30T18:42:24.833Z,61.56
2022-11-30T18:44:53.070Z,61.41
2022-11-30T18:47:21.047Z,62.23
2022-11-30T18:49:48.416Z,62.33
2022-11-30T18:52:15.821Z,61.86
2022-11-30T18:54:43.119Z,62.04
2022-11-30T18:57:10.498Z,62.11
2022-11-30T18:59:37.899Z,62.12
2022-11-30T19:02:06.041Z,62.05
2022-11-30T23:22:10.987Z,63.43
2022-11-30T23:24:38.600Z,63.10
2022-11-30T23:27:05.899Z,62.28
2022-11-30T23:29:34.715Z,61.39
2022-11-30T23:32:02.466Z,61.80
2022-11-30T23:34:29.900Z,61.24
2022-11-30T23:36:57.473Z,60.92
2022-11-30T23:39:24.925Z,61.31
2022-11-30T23:41:52.261Z,61.37
2022-11-30T23:44:19.800Z,61.14
2022-11-30T23:46:47.273Z,60.63
2022-11-30T23:49:15.413Z,60.83
2022-11-30T23:51:43.012Z,61.02
2022-11-30T23:54:10.460Z,60.77
2022-11-30T23:56:37.750Z,61.62
2022-11-30T23:59:06.050Z,61.32
